地図

経路データ

SID SEASON NUMBER BASIN SUBBASIN NAME ISO_TIME NATURE LAT LON WMO_WIND WMO_PRES WMO_AGENCY TRACK_TYPE DIST2LAND LANDFALL IFLAG USA_AGENCY USA_ATCF_ID USA_LAT USA_LON USA_RECORD USA_STATUS USA_WIND USA_PRES USA_SSHS USA_R34_NE USA_R34_SE USA_R34_SW USA_R34_NW USA_R50_NE USA_R50_SE USA_R50_SW USA_R50_NW USA_R64_NE USA_R64_SE USA_R64_SW USA_R64_NW USA_POCI USA_ROCI USA_RMW USA_EYE TOKYO_LAT TOKYO_LON TOKYO_GRADE TOKYO_WIND TOKYO_PRES TOKYO_R50_DIR TOKYO_R50_LONG TOKYO_R50_SHORT TOKYO_R30_DIR TOKYO_R30_LONG TOKYO_R30_SHORT TOKYO_LAND CMA_LAT CMA_LON CMA_CAT CMA_WIND CMA_PRES HKO_LAT HKO_LON HKO_CAT HKO_WIND HKO_PRES NEWDELHI_LAT NEWDELHI_LON NEWDELHI_GRADE NEWDELHI_WIND NEWDELHI_PRES NEWDELHI_CI NEWDELHI_DP NEWDELHI_POCI REUNION_LAT REUNION_LON REUNION_TYPE REUNION_WIND REUNION_PRES REUNION_TNUM REUNION_CI REUNION_RMW REUNION_R34_NE REUNION_R34_SE REUNION_R34_SW REUNION_R34_NW REUNION_R50_NE REUNION_R50_SE REUNION_R50_SW REUNION_R50_NW REUNION_R64_NE REUNION_R64_SE REUNION_R64_SW REUNION_R64_NW BOM_LAT BOM_LON BOM_TYPE BOM_WIND BOM_PRES BOM_TNUM BOM_CI BOM_RMW BOM_R34_NE BOM_R34_SE BOM_R34_SW BOM_R34_NW BOM_R50_NE BOM_R50_SE BOM_R50_SW BOM_R50_NW BOM_R64_NE BOM_R64_SE BOM_R64_SW BOM_R64_NW BOM_ROCI BOM_POCI BOM_EYE BOM_POS_METHOD BOM_PRES_METHOD NADI_LAT NADI_LON NADI_CAT NADI_WIND NADI_PRES WELLINGTON_LAT WELLINGTON_LON WELLINGTON_WIND WELLINGTON_PRES DS824_LAT DS824_LON DS824_STAGE DS824_WIND DS824_PRES TD9636_LAT TD9636_LON TD9636_STAGE TD9636_WIND TD9636_PRES TD9635_LAT TD9635_LON TD9635_WIND TD9635_PRES TD9635_ROCI NEUMANN_LAT NEUMANN_LON NEUMANN_CLASS NEUMANN_WIND NEUMANN_PRES MLC_LAT MLC_LON MLC_CLASS MLC_WIND MLC_PRES USA_GUST BOM_GUST BOM_GUST_PER REUNION_GUST REUNION_GUST_PER USA_SEAHGT USA_SEARAD_NE USA_SEARAD_SE USA_SEARAD_SW USA_SEARAD_NW STORM_SPEED STORM_DIR
1882042S13071 1882 6 SI MM NOT_NAMED 1882-02-11 06:00:00 NR -13.4000 70.9000 reunion main 1592 1582 _____O________ -1 -13.4000 70.9000 99 9.90000 2 248
1882042S13071 1882 6 SI MM NOT_NAMED 1882-02-11 09:00:00 NR -13.4331 70.8228 main 1582 1567 _____P________ -1 -13.4331 70.8228 99 2 245
1882042S13071 1882 6 SI MM NOT_NAMED 1882-02-11 12:00:00 NR -13.4713 70.7410 main 1567 1567 _____P________ -1 -13.4713 70.7410 99 2 243
1882042S13071 1882 6 SI MM NOT_NAMED 1882-02-11 15:00:00 NR -13.5199 70.6502 main 1567 1552 _____P________ -1 -13.5199 70.6502 99 2 239
1882042S13071 1882 6 SI MM NOT_NAMED 1882-02-11 18:00:00 NR -13.5841 70.5458 main 1543 1528 _____P________ -1 -13.5841 70.5458 99 3 236
1882042S13071 1882 6 SI MM NOT_NAMED 1882-02-11 21:00:00 NR -13.6690 70.4231 main 1528 1513 _____P________ -1 -13.6690 70.4231 99 3 233
1882042S13071 1882 6 SI MM NOT_NAMED 1882-02-12 00:00:00 NR -13.7799 70.2777 main 1513 1489 _____P________ -1 -13.7799 70.2777 99 4 231
1882042S13071 1882 6 SI MM NOT_NAMED 1882-02-12 03:00:00 NR -13.9218 70.1049 main 1489 1459 _____P________ -1 -13.9218 70.1049 99 5 229
1882042S13071 1882 6 SI MM NOT_NAMED 1882-02-12 06:00:00 NR -14.1000 69.9000 reunion main 1459 1429 _____O________ -1 -14.1000 69.9000 99 9.90000 6 227
1882042S13071 1882 6 SI MM NOT_NAMED 1882-02-12 09:00:00 NR -14.3177 69.6603 main 1429 1385 _____P________ -1 -14.3177 69.6603 99 7 226
1882042S13071 1882 6 SI MM NOT_NAMED 1882-02-12 12:00:00 NR -14.5707 69.3914 main 1385 1346 _____P________ -1 -14.5707 69.3914 99 8 225
1882042S13071 1882 6 SI MM NOT_NAMED 1882-02-12 15:00:00 NR -14.8531 69.1011 main 1340 1301 _____P________ -1 -14.8531 69.1011 99 8 224
1882042S13071 1882 6 SI MM NOT_NAMED 1882-02-12 18:00:00 NR -15.1590 68.7969 main 1296 1252 _____P________ -1 -15.1590 68.7969 99 9 223
1882042S13071 1882 6 SI MM NOT_NAMED 1882-02-12 21:00:00 NR -15.4825 68.4869 main 1252 1208 _____P________ -1 -15.4825 68.4869 99 9 222
1882042S13071 1882 6 SI MM NOT_NAMED 1882-02-13 00:00:00 NR -15.8177 68.1787 main 1208 1165 _____P________ -1 -15.8177 68.1787 99 9 221
1882042S13071 1882 6 SI MM NOT_NAMED 1882-02-13 03:00:00 NR -16.1588 67.8804 main 1160 1117 _____P________ -1 -16.1588 67.8804 99 9 219
1882042S13071 1882 6 SI MM NOT_NAMED 1882-02-13 06:00:00 NR -16.5000 67.6000 reunion main 1117 1084 _____O________ -1 -16.5000 67.6000 99 9.90000 8 217
1882042S13071 1882 6 SI MM NOT_NAMED 1882-02-13 09:00:00 NR -16.8250 67.3482 main 1075 1042 _____P________ -1 -16.8250 67.3482 99 8 216
1882042S13071 1882 6 SI MM NOT_NAMED 1882-02-13 12:00:00 NR -17.1555 67.1091 main 1038 1007 _____P________ -1 -17.1555 67.1091 99 8 214
1882042S13071 1882 6 SI MM NOT_NAMED 1882-02-13 15:00:00 NR -17.4888 66.8836 main 1007 976 _____P________ -1 -17.4888 66.8836 99 8 212
1882042S13071 1882 6 SI MM NOT_NAMED 1882-02-13 18:00:00 NR -17.8221 66.6728 main 976 946 _____P________ -1 -17.8221 66.6728 99 8 210
1882042S13071 1882 6 SI MM NOT_NAMED 1882-02-13 21:00:00 NR -18.1526 66.4779 main 942 913 _____P________ -1 -18.1526 66.4779 99 7 208
1882042S13071 1882 6 SI MM NOT_NAMED 1882-02-14 00:00:00 NR -18.4776 66.3000 main 913 885 _____P________ -1 -18.4776 66.3000 99 7 206
1882042S13071 1882 6 SI MM NOT_NAMED 1882-02-14 03:00:00 NR -18.7943 66.1403 main 885 868 _____P________ -1 -18.7943 66.1403 99 7 205
1882042S13071 1882 6 SI MM NOT_NAMED 1882-02-14 06:00:00 NR -19.1000 66.0000 reunion main 868 852 _____O________ -1 -19.1000 66.0000 99 9.90000 7 203
1882042S13071 1882 6 SI MM NOT_NAMED 1882-02-14 09:00:00 NR -19.4103 65.8664 main 852 838 _____P________ -1 -19.4103 65.8664 99 7 201
1882042S13071 1882 6 SI MM NOT_NAMED 1882-02-14 12:00:00 NR -19.7132 65.7528 main 838 825 _____P________ -1 -19.7132 65.7528 99 6 198
1882042S13071 1882 6 SI MM NOT_NAMED 1882-02-14 15:00:00 NR -20.0055 65.6575 main 825 813 _____P________ -1 -20.0055 65.6575 99 6 196
1882042S13071 1882 6 SI MM NOT_NAMED 1882-02-14 18:00:00 NR -20.2843 65.5789 main 813 802 _____P________ -1 -20.2843 65.5789 99 6 194
1882042S13071 1882 6 SI MM NOT_NAMED 1882-02-14 21:00:00 NR -20.5463 65.5155 main 802 802 _____P________ -1 -20.5463 65.5155 99 5 191
1882042S13071 1882 6 SI MM NOT_NAMED 1882-02-15 00:00:00 NR -20.7883 65.4657 main 803 793 _____P________ -1 -20.7883 65.4657 99 5 190
1882042S13071 1882 6 SI MM NOT_NAMED 1882-02-15 03:00:00 NR -21.0073 65.4277 main 794 794 _____P________ -1 -21.0073 65.4277 99 4 187
1882042S13071 1882 6 SI MM NOT_NAMED 1882-02-15 06:00:00 NR -21.2000 65.4000 reunion main 796 796 _____O________ -1 -21.2000 65.4000 99 9.90000 4 185
1882042S13071 1882 6 SI MM NOT_NAMED 1882-02-15 09:00:00 NR -21.3644 65.3810 main 799 799 _____P________ -1 -21.3644 65.3810 99 3 189
1882042S13071 1882 6 SI MM NOT_NAMED 1882-02-15 12:00:00 NR -21.5030 65.3696 main 800 800 _____P________ -1 -21.5030 65.3696 99 3 186
1882042S13071 1882 6 SI MM NOT_NAMED 1882-02-15 15:00:00 NR -21.6196 65.3647 main 802 802 _____P________ -1 -21.6196 65.3647 99 2 0
1882042S13071 1882 6 SI MM NOT_NAMED 1882-02-15 18:00:00 NR -21.7177 65.3652 main 804 804 _____P________ -1 -21.7177 65.3652 99 2 0
1882042S13071 1882 6 SI MM NOT_NAMED 1882-02-15 21:00:00 NR -21.8012 65.3701 main 806 806 _____P________ -1 -21.8012 65.3701 99 2 170
1882042S13071 1882 6 SI MM NOT_NAMED 1882-02-16 00:00:00 NR -21.8736 65.3782 main 808 808 _____P________ -1 -21.8736 65.3782 99 1 0
1882042S13071 1882 6 SI MM NOT_NAMED 1882-02-16 03:00:00 NR -21.9386 65.3886 main 808 808 _____P________ -1 -21.9386 65.3886 99 1 0
1882042S13071 1882 6 SI MM NOT_NAMED 1882-02-16 06:00:00 NR -22.0000 65.4000 reunion main 810 _____O________ -1 -22.0000 65.4000 99 9.90000 1 0

IBTrACS Databaseについて

本データベースは、米国NOAAが公開する1842年以降の世界の熱帯低気圧のベストトラックデータアーカイブInternational Best Track Archive for Climate Stewardship (IBTrACS)を、ウェブで閲覧しやすい形式に変換したものです。

最終更新日:2021-12-06